ADDS METAR Data INFO
IDs: Format: Raw Decoded Include TAF

Data at: 0331 UTC 16 Dec 2017

KRWF 160253Z AUTO 10006KT 10SM OVC075 02/M01 A2965 RMK AO2 SLP051 T00171011 58014
KRWF 160153Z AUTO 12003KT 10SM BKN080 OVC110 02/M01 A2967 RMK AO2 SLP058 T00171011
KRWF 160053Z AUTO 14006KT 10SM OVC075 02/M01 A2967 RMK AO2 SLP059 T00171011
KRWF 152353Z AUTO 16006KT 10SM OVC080 02/M01 A2969 RMK AO2 SLP065 T00171011 10039 20017 57015
KRWF 152253Z AUTO 17004KT 10SM OVC070 03/M01 A2971 RMK AO2 SLP070 T00281011
KRWF 152153Z AUTO 21004KT 10SM OVC075 04/M01 A2972 RMK AO2 SLP075 T00391011
KRWF 152053Z AUTO 23005KT 10SM CLR 03/M02 A2974 RMK AO2 SLP081 T00331017 56029
KRWF 151953Z AUTO 23007KT 10SM FEW024 03/M02 A2976 RMK AO2 SLP087 T00281017
KRWF 151853Z AUTO VRB04KT 10SM BKN016 OVC043 02/M01 A2979 RMK AO2 SLP101 T00171011
KRWF 151803Z AUTO VRB03KT 10SM OVC010 01/M01 A2982 RMK AO2 CIG 008V015 T00111011
KRWF 151753Z AUTO VRB03KT 10SM OVC009 01/M01 A2982 RMK AO2 CIG 007V014 SLP112 60000 T00061011 10006 21006 58015
KRWF 151653Z AUTO 00000KT 7SM BKN008 OVC011 00/M02 A2987 RMK AO2 SNE51 SLP126 P0000 T00001017
KRWF 151627Z AUTO 26003KT 4SM -SN BR BKN006 OVC013 00/M01 A2987 RMK AO2 P0000 T00001011
KRWF 151619Z AUTO 27003KT 2 1/2SM -SN BR BKN006 OVC013 00/M01 A2987 RMK AO2 P0000 T00001011
KRWF 151555Z AUTO 29004KT 2SM -SN BR FEW006 OVC014 00/M01 A2987 RMK AO2 P0000 T00001011
KRWF 151553Z AUTO 28004KT 1 1/2SM -SN BR OVC014 00/M01 A2987 RMK AO2 SNB1454 SLP127 P0000 T00001011
KRWF 151549Z AUTO 29004KT 1 1/2SM -SN BR OVC012 00/M01 A2987 RMK AO2 SNB1454 P0000
KRWF 151541Z AUTO 29006KT 2SM -SN BR OVC014 00/M01 A2987 RMK AO2 SNB1454 P0000 T00001011
KRWF 151528Z AUTO 29006KT 2 1/2SM -SN BR OVC015 00/M02 A2987 RMK AO2 SNB1454 P0000 T00001017
KRWF 151522Z AUTO 30005KT 3SM -SN BR BKN014 OVC020 M01/M02 A2987 RMK AO2 SNB1454 P0000 T10061017
KRWF 151510Z AUTO 28006KT 1 3/4SM -SN BR OVC020 00/M02 A2987 RMK AO2 SNB1454 P0000 T00001017
KRWF 151453Z AUTO 27005KT 9SM BKN020 OVC043 00/M02 A2987 RMK AO2 SLP127 T00001022 56008
KRWF 151438Z AUTO 28006KT 10SM SCT018 OVC043 M01/M02 A2987 RMK AO2 T10061022
KRWF 151353Z AUTO 27006KT 10SM OVC015 M01/M02 A2988 RMK AO2 SLP131 T10061022
KRWF 151253Z AUTO 28007KT 10SM OVC019 M01/M02 A2988 RMK AO2 SLP132 T10061022
KRWF 151153Z AUTO 29008KT 10SM OVC019 M01/M02 A2989 RMK AO2 SLP136 60000 7//// T10061022 11006 21028 56014
KRWF 151104Z AUTO 27008KT 10SM BKN021 OVC049 M01/M03 A2989 RMK AO2 T10061028
KRWF 151053Z AUTO 27008KT 10SM SCT021 OVC049 M01/M03 A2990 RMK AO2 SLP137 T10061028
KRWF 151032Z AUTO 26009KT 10SM SCT025 OVC045 M01/M03 A2990 RMK AO2 T10111028
KRWF 150953Z AUTO 25007KT 10SM OVC026 M01/M03 A2991 RMK AO2 SNB01E26 SLP143 P0000 T10111028
KRWF 150911Z AUTO 26008KT 8SM -SN BKN022 BKN027 OVC034 M01/M03 A2993 RMK AO2 SNB01 P0000 T10111028
KRWF 150853Z AUTO 25009KT 9SM FEW025 BKN034 OVC044 M02/M03 A2994 RMK AO2 SNB20E53 SLP150 P0000 60000 T10171028 56021
KRWF 150844Z AUTO 25009KT 5SM -SN BR SCT030 OVC039 M02/M03 A2994 RMK AO2 SNB20 P0000 T10171028
KRWF 150835Z AUTO 25010KT 2 1/2SM -SN BR BKN030 OVC043 M02/M03 A2994 RMK AO2 SNB20 P0000 T10171028
KRWF 150753Z AUTO 25008KT 10SM OVC039 M02/M04 A2995 RMK AO2 SLP155 T10171044
KRWF 150653Z AUTO 26010KT 10SM OVC065 M02/M05 A2997 RMK AO2 SLP164 T10221050
KRWF 150553Z AUTO 24007KT 10SM OVC047 M03/M05 A3000 RMK AO2 SLP173 60000 T10281050 11028 21033 410221083 58016
KRWF 150453Z AUTO 24006KT 10SM BKN036 OVC043 M03/M06 A3002 RMK AO2 SNB29E45 SLP181 P0000 T10281056
KRWF 150353Z AUTO 28008KT 10SM FEW025 OVC043 M03/M06 A3004 RMK AO2 SNB08E42 SLP189 P0000 T10331056
KRWF 150340Z AUTO 30006KT 9SM -SN SCT025 OVC045 M03/M06 A3005 RMK AO2 SNB08 P0000 T10331056
KRWF 150253Z AUTO 29008KT 10SM BKN028 OVC048 M03/M06 A3005 RMK AO2 SLP191 T10281061 58005
KRWF 150214Z AUTO 30008KT 10SM SCT022 BKN050 M03/M07 A3005 RMK AO2 T10331067
KRWF 150153Z AUTO 31009KT 10SM OVC023 M03/M07 A3006 RMK AO2 SLP194 T10281067
KRWF 150053Z AUTO 32010G18KT 10SM OVC022 M03/M07 A3007 RMK AO2 SLP197 T10331072
KRWF 142353Z AUTO 32014G21KT 10SM BKN020 OVC028 M03/M06 A3006 RMK AO2 SLP196 6//// T10281061 11022 21050 51004
KRWF 142253Z AUTO 31008KT 10SM BKN019 OVC032 M03/M07 A3006 RMK AO2 SLP195 T10281067
KRWF 142244Z AUTO 31008KT 10SM SCT021 OVC032 M03/M07 A3006 RMK AO2 T10281067
KRWF 142237Z AUTO 31007KT 10SM SCT019 BKN023 OVC032 M03/M07 A3006 RMK AO2 T10281067
KRWF 142228Z AUTO 31006KT 10SM SCT021 OVC032 M03/M07 A3006 RMK AO2 T10281067
KRWF 142211Z AUTO 31008KT 10SM SCT019 BKN025 OVC031 M03/M07 A3005 RMK AO2 T10281067 $
KRWF 142153Z AUTO 32007KT 10SM SCT021 OVC031 M03/M07 A3005 RMK AO2 SLP192 T10281072 $
KRWF 142108Z AUTO 31009KT 10SM FEW021 OVC029 M03/M07 A3004 RMK AO2 T10281072 $
KRWF 142053Z AUTO 32007KT 10SM OVC031 M03/M07 A3004 RMK AO2 SLP188 6//// T10281072 $
KRWF 141953Z AUTO 33007KT 10SM OVC040 M03/M07 A3003 RMK AO2 SLP187 T10281072 PWINO FZRANO
KRWF 141836Z AUTO 10SM OVC015 M03/ A3005 RMK AO2 T1033 PWINO FZRANO PNO $
KRWF 141753Z AUTO 10SM OVC014 M04/ A3005 RMK AO2 SLP191 6//// T1039 11039 21061 50005 PWINO FZRANO PNO $
KRWF 141653Z AUTO 30004KT OVC011 M05/M08 A3005 RMK AO2 SLP192 T10501083 $
KRWF 141646Z AUTO 34005KT OVC010 M05/M08 A3005 RMK AO2 T10501083 $
KRWF 141553Z AUTO 31006KT 10SM OVC008 M06/M08 A3005 RMK AO2 SLP191 T10561083